Petersburg, Michigan
Current Conditions -  °F | °C
As of 11:35 PM on Friday 24 Oct 2014 (Local Time) from KDUH Reporting Station
Scattered Clouds Scattered Clouds  
Wind Chill: 48°   Ceiling: Unl
Heat Index: 48°   Visibility: 7mi
Dew Point: 45°   Wind: 3mph
Humidity: 87%   Direction: 220°SW
Pressure: 29.98"   Gusts: NA
Location:  41.9°N, 83.71°W
Report Text: KDUH 250335Z AUTO 22003KT 7SM SCT032 SCT043 09/07 A2998 RMK AO2
Loading
Personal Weather Stations






























Interactive Weather Map
Tropical Storm Tracking
New forecast layout! Learn more

10-Day Weather Forecast

Advertisements
Track Severe Weather on mobile